This is the latest recevied weather packets stored in our database for station/object DL9GJ-6. If no packets are shown the sender has not sent any weather packets the latest 10 day(s).
| Time | Temp. | Humidity | Pressure | Rain* | Wind** | Luminosity | Snow |
|---|---|---|---|---|---|---|---|
| 1777668971 | 12.22° C | 56% | 1023.9 hPa | 0 mm | - | 0 W/m² | - |
| 1777668250 | 12.78° C | 53% | 1024 hPa | 0 mm | - | 0 W/m² | - |
| 1777667529 | 13.33° C | 53% | 1024 hPa | 0 mm | - | 0 W/m² | - |
| 1777667173 | 13.33° C | 53% | 1023.9 hPa | 0 mm | - | 0 W/m² | - |
| 1777666811 | 13.33° C | 52% | 1024 hPa | 0 mm | - | 0 W/m² | - |
| 1777666449 | 13.33° C | 52% | 1023.9 hPa | 0 mm | - | 0 W/m² | - |
| 1777666092 | 13.33° C | 52% | 1023.9 hPa | 0 mm | - | 0 W/m² | - |
| 1777665372 | 13.89° C | 50% | 1023.9 hPa | 0 mm | - | 0 W/m² | - |
| 1777665013 | 14.44° C | 50% | 1023.8 hPa | 0 mm | - | 0 W/m² | - |
| 1777663931 | 15° C | 48% | 1023.7 hPa | 0 mm | - | 0 W/m² | - |
| 1777663575 | 15° C | 48% | 1023.6 hPa | 0 mm | - | 0 W/m² | - |
| 1777663214 | 15° C | 48% | 1023.6 hPa | 0 mm | - | 0 W/m² | - |
| 1777662852 | 15° C | 47% | 1023.6 hPa | 0 mm | - | 0 W/m² | - |
| 1777662134 | 15.56° C | 46% | 1023.6 hPa | 0 mm | - | 0 W/m² | - |
| 1777660330 | 17.22° C | 41% | 1023.5 hPa | 0 mm | - | 5 W/m² | - |
| 1777659970 | 17.78° C | 40% | 1023.4 hPa | 0 mm | - | 6 W/m² | - |
| 1777659612 | 17.78° C | 39% | 1023.3 hPa | 0 mm | - | 8 W/m² | - |
| 1777656730 | 19.44° C | 35% | 1023.3 hPa | 0 mm | - | 19 W/m² | - |
| 1777656011 | 20° C | 34% | 1023.2 hPa | 0 mm | - | 23 W/m² | - |
| 1777653131 | 21.11° C | 33% | 1023.3 hPa | 0 mm | - | 32 W/m² | - |
| 1777652414 | 21.11° C | 32% | 1023.3 hPa | 0 mm | - | 46 W/m² | - |
| 1777648450 | 21.67° C | 31% | 1023.7 hPa | 0 mm | - | 56 W/m² | - |
| 1777647732 | 22.22° C | 29% | 1023.7 hPa | 0 mm | - | 45 W/m² | - |
| 1777645931 | 22.22° C | 30% | 1023.8 hPa | 0 mm | - | 167 W/m² | - |
| 1777644852 | 22.22° C | 29% | 1023.9 hPa | 0 mm | - | 242 W/m² | - |
* Rain latest hour (hover to see other rain measurements)
** Current wind speed in m/s (hover to see current wind gust speed)